Time;durP1;ratioP1;P1;durP2;ratioP2;P2;SDS_P1;SDS_P2;PMS_P1;PMS_P2;Temp;Humidity;BMP_temperature;BMP_pressure;BME280_temperature;BME280_humidity;BME280_pressure;Samples;Min_cycle;Max_cycle;Signal;HPM_P1;HPM_P2
2023/08/02 00:01:01;;;;;;;17.83;4.00;;;;;;;;;;5057226;28;20117;-72
2023/08/02 00:03:27;;;;;;;14.88;4.50;;;;;;;;;;5074385;28;20044;-72
2023/08/02 00:05:54;;;;;;;15.98;4.03;;;;;;;;;;5073924;28;20375;-72
2023/08/02 00:08:20;;;;;;;11.30;4.60;;;;;;;;;;5073750;28;20477;-72
2023/08/02 00:10:47;;;;;;;11.88;4.65;;;;;;;;;;5073936;28;20044;-72
2023/08/02 00:13:13;;;;;;;15.10;4.80;;;;;;;;;;5057450;28;20036;-72
2023/08/02 00:15:39;;;;;;;14.63;4.80;;;;;;;;;;5073439;28;20048;-72
2023/08/02 00:18:05;;;;;;;16.60;5.82;;;;;;;;;;5057141;28;20106;-72
2023/08/02 00:20:31;;;;;;;11.88;5.00;;;;;;;;;;5073467;28;20497;-72
2023/08/02 00:22:57;;;;;;;13.35;5.20;;;;;;;;;;5056988;28;20041;-72
2023/08/02 00:25:23;;;;;;;22.08;5.13;;;;;;;;;;5056722;28;20043;-72
2023/08/02 00:27:49;;;;;;;15.43;5.68;;;;;;;;;;5073540;28;20097;-72
2023/08/02 00:30:16;;;;;;;12.38;5.22;;;;;;;;;;5056585;28;20068;-72
2023/08/02 00:32:46;;;;;;;13.70;6.50;;;16.20;99.90;;;;;;5073605;28;20442;-72
2023/08/02 00:35:12;;;;;;;14.48;6.05;;;15.70;99.90;;;;;;5073102;28;20505;-72
2023/08/02 00:37:38;;;;;;;13.60;6.22;;;;;;;;;;5072904;28;20139;-72
2023/08/02 00:40:04;;;;;;;14.70;6.60;;;;;;;;;;5072793;28;20045;-72
2023/08/02 00:42:30;;;;;;;17.02;5.95;;;;;;;;;;5073568;28;20461;-72
2023/08/02 00:44:56;;;;;;;24.00;6.65;;;;;;;;;;5073238;28;20386;-72
2023/08/02 00:47:23;;;;;;;23.17;6.50;;;;;;;;;;5056718;28;20033;-73
2023/08/02 00:49:49;;;;;;;18.08;6.53;;;;;;;;;;5072854;28;20041;-73
2023/08/02 00:52:15;;;;;;;21.83;7.05;;;;;;;;;;5073054;28;20489;-73
2023/08/02 00:54:41;;;;;;;17.60;7.07;;;;;;;;;;5073418;28;20110;-73
2023/08/02 00:57:09;;;;;;;20.48;7.30;;;16.50;99.90;;;;;;5073303;28;20481;-73
2023/08/02 00:59:40;;;;;;;21.73;7.43;;;16.80;99.90;;;;;;5056082;28;20143;-73
2023/08/02 01:02:06;;;;;;;22.48;6.80;;;;;;;;;;5056471;28;20106;-73
2023/08/02 01:04:36;;;;;;;16.23;6.95;;;;;;;;;;5072219;28;20493;-73
2023/08/02 01:07:02;;;;;;;17.25;7.25;;;;;;;;;;5072515;28;20040;-73
2023/08/02 01:09:35;;;;;;;17.58;6.78;;;17.40;99.90;;;;;;5072376;28;20044;-73
2023/08/02 01:12:09;;;;;;;17.85;7.53;;;16.60;99.90;;;;;;5072712;28;20047;-73
2023/08/02 01:14:39;;;;;;;15.55;7.75;;;16.70;99.90;;;;;;5072418;28;20036;-73
2023/08/02 01:17:05;;;;;;;22.10;8.02;;;;;;;;;;5056007;28;20036;-73
2023/08/02 01:19:32;;;;;;;13.35;7.35;;;;;;;;;;5055993;28;20367;-73
2023/08/02 01:21:58;;;;;;;18.42;7.65;;;;;;;;;;5072264;28;20078;-73
2023/08/02 01:24:30;;;;;;;17.92;6.82;;;16.40;99.90;;;;;;5071903;28;20032;-73
2023/08/02 01:26:57;;;;;;;18.27;7.55;;;;;;;;;;5055886;28;20036;-73
2023/08/02 01:29:23;;;;;;;19.23;7.85;;;;;;;;;;5071884;28;20154;-73
2023/08/02 01:31:49;;;;;;;19.92;6.63;;;;;;;;;;5055457;28;20158;-73
2023/08/02 01:34:15;;;;;;;16.52;7.35;;;;;;;;;;5071897;28;20048;-73
2023/08/02 01:36:42;;;;;;;21.00;9.23;;;;;;;;;;5055339;28;20089;-73
2023/08/02 01:39:08;;;;;;;21.38;7.75;;;;;;;;;;5071742;28;20398;-73
2023/08/02 01:41:34;;;;;;;19.02;7.93;;;;;;;;;;5072269;28;20427;-73
2023/08/02 01:44:00;;;;;;;21.50;7.07;;;;;;;;;;5072187;28;20040;-73
2023/08/02 01:46:26;;;;;;;21.67;8.18;;;;;;;;;;5071974;28;20033;-73
2023/08/02 01:48:53;;;;;;;21.92;8.63;;;;;;;;;;5071423;28;20036;-73
2023/08/02 01:51:19;;;;;;;20.45;7.47;;;;;;;;;;5055235;28;20548;-73
2023/08/02 01:53:45;;;;;;;18.08;7.50;;;;;;;;;;5071831;28;20032;-73
2023/08/02 01:56:11;;;;;;;23.58;7.97;;;;;;;;;;5071778;28;20504;-73
2023/08/02 01:58:37;;;;;;;17.25;7.85;;;;;;;;;;5055048;28;20036;-73
2023/08/02 02:01:03;;;;;;;19.55;8.20;;;;;;;;;;5055241;28;20048;-73
2023/08/02 02:03:29;;;;;;;25.10;9.35;;;15.40;99.90;;;;;;5055057;28;20043;-73
2023/08/02 02:05:55;;;;;;;18.55;8.18;;;;;;;;;;5071805;28;20036;-73
2023/08/02 02:08:21;;;;;;;32.90;9.20;;;;;;;;;;5054836;28;20024;-73
2023/08/02 02:10:51;;;;;;;20.13;8.43;;;16.30;99.90;;;;;;5071970;28;20040;-73
2023/08/02 02:13:18;;;;;;;21.52;9.68;;;;;;;;;;5071667;28;20047;-73
2023/08/02 02:15:44;;;;;;;15.07;7.97;;;;;;;;;;5054844;28;20470;-73
2023/08/02 02:18:10;;;;;;;26.42;9.40;;;;;;;;;;5054552;28;20041;-73
2023/08/02 02:20:36;;;;;;;26.75;9.40;;;;;;;;;;5071595;28;20045;-73
2023/08/02 02:23:02;;;;;;;21.02;8.88;;;;;;;;;;5071717;28;20043;-73
2023/08/02 02:25:28;;;;;;;22.10;8.48;;;;;;;;;;5071209;28;20032;-73
2023/08/02 02:27:54;;;;;;;32.88;10.30;;;;;;;;;;5055091;28;20044;-73
2023/08/02 02:30:20;;;;;;;18.60;8.60;;;;;;;;;;5071441;28;20040;-73
2023/08/02 02:32:46;;;;;;;19.55;8.88;;;;;;;;;;5071382;28;20504;-73
2023/08/02 02:35:12;;;;;;;18.25;9.43;;;;;;;;;;5071646;28;20045;-73
2023/08/02 02:37:39;;;;;;;18.55;8.88;;;;;;;;;;5071113;28;20106;-72
2023/08/02 02:40:06;;;;;;;23.85;8.85;;;16.20;99.90;;;;;;5071364;28;20054;-73
2023/08/02 02:42:32;;;;;;;22.77;8.90;;;;;;;;;;5067203;28;20081;-73
2023/08/02 02:44:58;;;;;;;33.28;9.70;;;;;;;;;;5071504;28;20124;-73
2023/08/02 02:47:24;;;;;;;22.50;8.88;;;;;;;;;;5071274;28;20036;-73
2023/08/02 02:49:50;;;;;;;22.35;8.50;;;;;;;;;;5065609;28;20087;-73
2023/08/02 02:52:16;;;;;;;18.70;8.50;;;;;;;;;;5054835;28;20119;-73
2023/08/02 02:54:42;;;;;;;21.23;8.88;;;;;;;;;;5071266;28;20032;-73
2023/08/02 02:57:09;;;;;;;17.52;8.10;;;;;;;;;;5054911;28;20042;-73
2023/08/02 02:59:36;;;;;;;23.75;8.50;;;;;;;;;;5070925;28;20482;-73
2023/08/02 03:02:02;;;;;;;31.17;8.82;;;;;;;;;;5071054;28;20044;-73
2023/08/02 03:04:28;;;;;;;18.23;8.30;;;;;;;;;;5071162;28;20048;-72
2023/08/02 03:06:54;;;;;;;32.53;8.38;;;;;;;;;;5071437;28;20072;-73
2023/08/02 03:09:20;;;;;;;23.00;8.52;;;;;;;;;;5071073;28;20126;-73
2023/08/02 03:11:46;;;;;;;26.77;7.65;;;;;;;;;;5051113;28;20122;-73
2023/08/02 03:14:12;;;;;;;18.90;7.80;;;;;;;;;;5050664;28;20077;-73
2023/08/02 03:16:42;;;;;;;23.83;7.82;;;;;;;;;;5069926;28;20047;-73
2023/08/02 03:19:09;;;;;;;23.83;7.63;;;;;;;;;;5070513;28;20534;-73
2023/08/02 03:21:35;;;;;;;25.05;7.88;;;;;;;;;;5053851;28;20410;-73
2023/08/02 03:24:01;;;;;;;24.85;7.55;;;;;;;;;;5053640;28;20084;-73
2023/08/02 03:26:27;;;;;;;18.50;7.78;;;;;;;;;;5070281;28;20044;-73
2023/08/02 03:28:53;;;;;;;27.73;7.68;;;;;;;;;;5070690;28;20036;-73
2023/08/02 03:31:19;;;;;;;30.50;7.90;;;;;;;;;;5056324;28;20133;-73
2023/08/02 03:33:45;;;;;;;31.95;9.60;;;;;;;;;;5074432;28;20040;-73
2023/08/02 03:36:11;;;;;;;26.40;8.27;;;;;;;;;;5057622;28;20044;-73
2023/08/02 03:38:38;;;;;;;27.27;7.90;;;;;;;;;;5057412;28;20126;-73
2023/08/02 03:41:04;;;;;;;31.98;8.43;;;;;;;;;;5073981;28;20060;-73
2023/08/02 03:43:30;;;;;;;29.33;7.53;;;;;;;;;;5074208;28;20033;-73
2023/08/02 03:45:56;;;;;;;26.63;8.00;;;;;;;;;;5074520;28;20086;-73
2023/08/02 03:48:22;;;;;;;29.40;8.93;;;;;;;;;;5074024;28;20036;-73
2023/08/02 03:50:48;;;;;;;33.95;8.40;;;;;;;;;;5074075;28;20036;-73
2023/08/02 03:53:14;;;;;;;29.05;8.63;;;;;;;;;;5057425;28;20036;-73
2023/08/02 03:55:40;;;;;;;31.25;9.02;;;;;;;;;;5074465;28;20045;-73
2023/08/02 03:58:07;;;;;;;29.10;8.43;;;;;;;;;;5074171;28;20466;-73
2023/08/02 04:00:33;;;;;;;29.25;8.27;;;;;;;;;;5054156;28;20033;-73
2023/08/02 04:03:00;;;;;;;45.40;9.18;;;;;;;;;;5069077;28;20036;-73
2023/08/02 04:05:26;;;;;;;33.05;9.20;;;;;;;;;;5057263;28;20079;-74
2023/08/02 04:07:52;;;;;;;31.33;8.30;;;;;;;;;;5073530;28;20037;-73
2023/08/02 04:10:18;;;;;;;32.83;10.00;;;;;;;;;;5056952;28;20083;-73
2023/08/02 04:12:44;;;;;;;31.63;9.48;;;;;;;;;;5057080;28;20040;-73
2023/08/02 04:15:10;;;;;;;38.97;10.13;;;16.50;99.90;;;;;;5073580;28;20040;-73
2023/08/02 04:17:36;;;;;;;34.85;9.82;;;15.30;99.90;;;;;;5056891;28;20128;-73
2023/08/02 04:20:02;;;;;;;30.55;9.82;;;;;;;;;;5073443;28;20051;-73
2023/08/02 04:22:31;;;;;;;30.92;9.48;;;17.20;99.90;;;;;;5073763;28;20499;-73
2023/08/02 04:24:58;;;;;;;41.58;10.05;;;;;;;;;;5073875;28;20099;-73
2023/08/02 04:27:24;;;;;;;33.17;10.05;;;;;;;;;;5040267;28;20032;-73
2023/08/02 04:29:50;;;;;;;34.78;9.60;;;;;;;;;;5063534;28;20044;-73
2023/08/02 04:32:16;;;;;;;34.67;9.70;;;;;;;;;;5060042;28;20040;-73
2023/08/02 04:34:42;;;;;;;38.55;10.32;;;;;;;;;;5073668;28;20059;-73
2023/08/02 04:37:08;;;;;;;34.53;9.80;;;;;;;;;;5073557;28;20386;-73
2023/08/02 04:39:34;;;;;;;37.03;9.30;;;;;;;;;;5072849;28;20041;-72
2023/08/02 04:42:00;;;;;;;43.85;10.90;;;;;;;;;;5055242;28;20049;-72
2023/08/02 04:44:26;;;;;;;37.20;10.07;;;16.50;99.90;;;;;;5072803;28;20102;-72
2023/08/02 04:46:52;;;;;;;29.10;9.82;;;;;;;;;;5055888;28;20035;-72
2023/08/02 04:49:18;;;;;;;34.08;9.88;;;;;;;;;;5072923;28;20044;-72
2023/08/02 04:51:44;;;;;;;28.65;9.80;;;;;;;;;;5072788;28;20045;-72
2023/08/02 04:54:11;;;;;;;39.28;10.00;;;;;;;;;;5072880;28;20094;-72
2023/08/02 04:56:38;;;;;;;31.42;9.63;;;;;;;;;;5073235;28;20076;-72
2023/08/02 04:59:05;;;;;;;38.60;10.30;;;;;;;;;;5056222;28;20124;-72
2023/08/02 05:01:32;;;;;;;33.08;10.02;;;;;;;;;;5052536;28;20037;-72
2023/08/02 05:03:58;;;;;;;40.22;10.35;;;;;;;;;;5053159;28;20044;-72
2023/08/02 05:06:24;;;;;;;36.03;11.45;;;;;;;;;;5054178;28;20040;-72
2023/08/02 05:08:50;;;;;;;42.33;10.95;;;;;;;;;;5072606;28;20553;-72
2023/08/02 05:11:16;;;;;;;32.90;11.20;;;;;;;;;;5056278;28;20037;-72
2023/08/02 05:13:42;;;;;;;30.85;11.23;;;;;;;;;;5072701;28;20045;-72
2023/08/02 05:16:12;;;;;;;47.92;11.43;;;16.70;99.90;;;;;;5055862;28;20051;-72
2023/08/02 05:18:39;;;;;;;43.38;11.40;;;;;;;;;;5072135;28;20036;-73
2023/08/02 05:21:15;;;;;;;43.55;12.30;;;16.10;99.90;;;;;;5072115;28;20513;-72
2023/08/02 05:23:41;;;;;;;35.58;11.15;;;;;;;;;;5055470;28;20033;-72
2023/08/02 05:26:08;;;;;;;37.85;11.60;;;16.30;99.90;;;;;;5072238;28;20398;-72
2023/08/02 05:28:34;;;;;;;32.83;10.40;;;16.20;99.90;;;;;;5072304;28;20033;-72
2023/08/02 05:31:01;;;;;;;37.00;12.90;;;;;;;;;;5072534;28;20414;-72
2023/08/02 05:33:27;;;;;;;35.35;11.55;;;;;;;;;;5072125;28;20398;-72
2023/08/02 05:35:53;;;;;;;31.83;11.32;;;;;;;;;;5054995;28;20051;-72
2023/08/02 05:38:19;;;;;;;34.63;11.32;;;;;;;;;;5072005;28;20059;-72
2023/08/02 05:40:45;;;;;;;36.63;12.82;;;;;;;;;;5071886;28;20082;-72
2023/08/02 05:43:11;;;;;;;39.90;12.38;;;;;;;;;;5071673;28;20124;-72
2023/08/02 05:45:37;;;;;;;37.60;11.88;;;;;;;;;;5071439;28;20041;-72
2023/08/02 05:48:03;;;;;;;47.03;12.00;;;;;;;;;;5071999;28;20055;-72
2023/08/02 05:50:30;;;;;;;35.40;12.05;;;;;;;;;;5055172;28;20032;-71
2023/08/02 05:52:56;;;;;;;42.47;13.02;;;;;;;;;;5072069;28;20098;-72
2023/08/02 05:55:22;;;;;;;29.10;11.23;;;;;;;;;;5054845;28;20094;-72
2023/08/02 05:57:48;;;;;;;31.13;12.38;;;;;;;;;;5055147;28;20052;-73
2023/08/02 06:00:15;;;;;;;33.03;12.05;;;;;;;;;;5071762;28;20478;-72
2023/08/02 06:02:41;;;;;;;34.25;12.82;;;;;;;;;;5068358;28;20032;-72
2023/08/02 06:05:07;;;;;;;28.88;12.55;;;;;;;;;;5071502;28;20123;-72
2023/08/02 06:07:33;;;;;;;44.35;12.63;;;;;;;;;;5054678;28;20535;-72
2023/08/02 06:10:00;;;;;;;36.70;12.57;;;;;;;;;;5071958;28;20123;-72
2023/08/02 06:12:26;;;;;;;30.60;12.82;;;;;;;;;;5071086;28;20162;-72
2023/08/02 06:14:52;;;;;;;34.40;12.77;;;;;;;;;;5071588;28;20066;-72
2023/08/02 06:17:18;;;;;;;42.45;13.18;;;;;;;;;;5071379;28;20029;-72
2023/08/02 06:19:44;;;;;;;36.55;12.70;;;;;;;;;;5070405;28;20045;-72
2023/08/02 06:22:10;;;;;;;33.05;12.68;;;;;;;;;;5070660;28;20036;-72
2023/08/02 06:24:36;;;;;;;32.30;13.10;;;;;;;;;;5070382;28;20047;-72
2023/08/02 06:27:03;;;;;;;29.33;11.45;;;;;;;;;;5054389;28;20097;-72
2023/08/02 06:29:29;;;;;;;33.53;12.15;;;;;;;;;;5071316;28;20032;-72
2023/08/02 06:31:55;;;;;;;28.73;11.18;;;;;;;;;;5054408;28;20037;-72
2023/08/02 06:34:21;;;;;;;26.95;11.70;;;;;;;;;;5067469;28;20101;-72
2023/08/02 06:36:47;;;;;;;41.00;13.57;;;;;;;;;;5037452;28;20123;-72
2023/08/02 06:39:13;;;;;;;40.45;12.02;;;;;;;;;;5054289;28;20060;-72
2023/08/02 06:41:39;;;;;;;37.10;12.25;;;;;;;;;;5071041;28;20553;-72
2023/08/02 06:44:05;;;;;;;36.70;12.07;;;;;;;;;;5071298;28;20044;-72
2023/08/02 06:46:33;;;;;;;31.05;12.55;;;;;;;;;;5070674;28;20105;-72
2023/08/02 06:48:59;;;;;;;28.40;11.90;;;;;;;;;;5070322;28;20128;-72
2023/08/02 06:51:25;;;;;;;34.72;13.07;;;;;;;;;;5070039;28;20044;-72
2023/08/02 06:53:52;;;;;;;33.10;12.10;;;;;;;;;;5046177;28;20056;-71
2023/08/02 06:56:18;;;;;;;33.03;12.48;;;;;;;;;;5070767;28;20406;-71
2023/08/02 06:58:44;;;;;;;33.53;12.10;;;;;;;;;;5054358;28;20044;-72
2023/08/02 07:01:18;;;;;;;30.75;11.95;;;;;;;;;;5066064;28;20028;-71
2023/08/02 07:03:45;;;;;;;29.98;11.13;;;16.70;99.90;;;;;;5066937;28;20109;-72
2023/08/02 07:06:13;;;;;;;33.70;10.90;;;16.50;99.90;;;;;;5071481;28;20076;-72
2023/08/02 07:08:40;;;;;;;40.22;11.73;;;;;;;;;;5073180;28;20036;-71
2023/08/02 07:11:06;;;;;;;37.15;11.60;;;;;;;;;;5073567;28;20104;-71
2023/08/02 07:13:32;;;;;;;28.73;10.90;;;;;;;;;;5072654;28;20046;-72
2023/08/02 07:15:59;;;;;;;25.58;10.15;;;;;;;;;;5068701;28;20038;-71
2023/08/02 07:18:25;;;;;;;27.73;10.82;;;;;;;;;;5073889;28;20040;-72
2023/08/02 07:20:51;;;;;;;31.77;10.13;;;;;;;;;;5057275;28;20048;-72
2023/08/02 07:23:17;;;;;;;28.27;11.15;;;;;;;;;;5056368;28;20078;-71
2023/08/02 07:25:43;;;;;;;29.08;9.77;;;;;;;;;;5073420;28;20044;-76
2023/08/02 07:28:09;;;;;;;27.67;10.32;;;;;;;;;;5069477;28;20040;-78
2023/08/02 07:30:35;;;;;;;23.08;9.88;;;;;;;;;;5058080;28;20036;-72
2023/08/02 07:33:01;;;;;;;36.47;10.63;;;;;;;;;;5074452;28;20044;-71
2023/08/02 07:35:27;;;;;;;32.15;10.55;;;;;;;;;;5057667;28;20044;-71
2023/08/02 07:37:53;;;;;;;25.92;11.15;;;;;;;;;;5074433;28;20410;-71
2023/08/02 07:40:20;;;;;;;38.53;12.35;;;;;;;;;;5074290;28;20041;-71
2023/08/02 07:42:46;;;;;;;32.97;10.95;;;;;;;;;;5074675;28;20123;-76
2023/08/02 07:45:12;;;;;;;29.92;11.27;;;;;;;;;;5074081;28;20033;-71
2023/08/02 07:47:39;;;;;;;29.08;10.43;;;16.70;99.90;;;;;;5074134;28;20115;-71
2023/08/02 07:50:06;;;;;;;31.67;11.00;;;;;;;;;;5074179;28;20068;-72
2023/08/02 07:52:32;;;;;;;22.98;10.18;;;;;;;;;;5074133;28;20040;-71
2023/08/02 07:54:58;;;;;;;30.63;10.82;;;;;;;;;;5057212;28;20033;-70
2023/08/02 07:57:27;;;;;;;31.63;10.90;;;16.40;99.90;;;;;;5074069;28;20036;-71
2023/08/02 07:59:53;;;;;;;33.65;11.32;;;;;;;;;;5072610;28;20048;-72
2023/08/02 08:02:20;;;;;;;33.10;10.13;;;;;;;;;;5057118;28;20049;-71
2023/08/02 08:04:48;;;;;;;26.88;10.98;;;;;;;;;;5057281;28;20048;-71
2023/08/02 08:07:14;;;;;;;28.73;10.13;;;;;;;;;;5057475;28;20051;-72
2023/08/02 08:09:40;;;;;;;29.88;10.38;;;;;;;;;;5074158;28;20097;-71
2023/08/02 08:12:06;;;;;;;27.33;8.98;;;15.40;99.90;;;;;;5057416;28;20055;-70
2023/08/02 08:14:33;;;;;;;25.33;9.20;;;16.30;99.90;;;;;;5074067;28;20141;-69
2023/08/02 08:17:00;;;;;;;27.23;9.23;;;;;;;;;;5073904;28;20397;-69
2023/08/02 08:19:29;;;;;;;28.85;9.88;;;;;;;;;;5057224;28;20050;-70
2023/08/02 08:21:56;;;;;;;19.98;9.30;;;;;;;;;;5056972;28;20127;-70
2023/08/02 08:24:31;;;;;;;21.17;7.95;;;;;;;;;;5073806;28;20086;-70
2023/08/02 08:26:57;;;;;;;27.15;8.48;;;;;;;;;;5073588;28;20402;-70
2023/08/02 08:29:23;;;;;;;27.27;9.35;;;;;;;;;;5073033;28;20047;-70
2023/08/02 08:31:49;;;;;;;24.77;9.07;;;15.90;99.90;;;;;;5073324;28;20047;-70
2023/08/02 08:34:14;;;;;;;24.33;7.85;;;15.10;99.90;;;;;;5073506;28;20029;-70
2023/08/02 08:36:40;;;;;;;28.73;7.80;;;16.30;99.90;;;;;;5074487;28;20047;-70
2023/08/02 08:39:06;;;;;;;21.85;8.48;;;;;;;;;;5072498;28;20044;-70
2023/08/02 08:41:32;;;;;;;21.25;8.38;;;;;;;;;;5055414;28;20036;-70
2023/08/02 08:44:02;;;;;;;19.88;7.63;;;15.90;99.90;;;;;;5071617;28;20132;-71
2023/08/02 08:46:31;;;;;;;23.48;7.50;;;16.10;99.90;;;;;;5073164;28;20037;-70
2023/08/02 08:48:58;;;;;;;15.82;7.30;;;;;;;;;;5071799;28;20476;-70
2023/08/02 08:51:27;;;;;;;19.80;7.15;;;16.20;99.90;;;;;;5070465;28;20055;-70
2023/08/02 08:53:54;;;;;;;22.30;7.63;;;16.00;99.90;;;;;;5056030;28;20044;-70
2023/08/02 08:56:24;;;;;;;21.85;7.10;;;;;;;;;;5072981;28;20088;-70
2023/08/02 08:58:50;;;;;;;19.05;6.95;;;;;;;;;;5072735;28;20199;-70
2023/08/02 09:01:16;;;;;;;24.55;7.32;;;;;;;;;;5072104;28;20051;-70
2023/08/02 09:03:44;;;;;;;26.38;7.13;;;;;;;;;;5072314;28;20048;-70
2023/08/02 09:06:10;;;;;;;16.00;7.28;;;;;;;;;;5071763;28;20486;-70
2023/08/02 09:08:43;;;;;;;19.08;6.95;;;;;;;;;;5069705;28;20466;-70
2023/08/02 09:11:09;;;;;;;18.38;7.28;;;;;;;;;;5070907;28;20075;-70
2023/08/02 09:13:35;;;;;;;15.93;7.10;;;;;;;;;;5071869;28;20041;-70
2023/08/02 09:16:15;;;;;;;17.60;7.30;;;16.20;99.90;;;;;;5071818;28;20041;-70
2023/08/02 09:18:46;;;;;;;17.90;8.82;;;16.20;99.90;;;;;;5104925;28;20040;-70
2023/08/02 09:21:15;;;;;;;17.88;8.60;;;16.20;99.90;;;;;;5070671;28;20109;-70
2023/08/02 09:24:00;;;;;;;17.20;8.20;;;16.30;99.90;;;;;;5071849;28;20048;-70
2023/08/02 09:26:27;;;;;;;19.77;8.43;;;;;;;;;;5071914;28;20518;-70
2023/08/02 09:29:04;;;;;;;15.73;8.65;;;16.40;99.90;;;;;;5071652;28;20513;-70
2023/08/02 09:31:34;;;;;;;17.48;8.63;;;16.30;99.90;;;;;;5106339;28;20048;-70
2023/08/02 09:34:00;;;;;;;19.77;8.65;;;;;;;;;;5072358;28;20048;-70
2023/08/02 09:36:27;;;;;;;17.92;9.15;;;;;;;;;;5072105;28;20040;-70
2023/08/02 09:39:04;;;;;;;22.30;9.77;;;16.40;99.90;;;;;;5070873;28;20105;-69
2023/08/02 09:41:31;;;;;;;15.55;9.48;;;16.30;99.90;;;;;;5092902;28;20048;-69
2023/08/02 09:43:58;;;;;;;21.25;10.32;;;;;;;;;;5070854;28;20079;-67
2023/08/02 09:46:26;;;;;;;22.63;10.65;;;;;;;;;;5070607;28;20039;-67
2023/08/02 09:48:52;;;;;;;19.55;11.93;;;;;;;;;;5069036;28;20036;-67
2023/08/02 09:51:18;;;;;;;23.45;10.57;;;;;;;;;;5054160;28;20482;-67
2023/08/02 09:53:55;;;;;;;19.95;11.40;;;;;;;;;;5070730;28;20131;-67
2023/08/02 09:56:23;;;;;;;18.60;10.57;;;16.40;99.90;;;;;;5054015;28;20051;-68
2023/08/02 09:58:53;;;;;;;19.95;10.95;;;16.40;99.90;;;;;;5037639;28;20111;-68
2023/08/02 10:01:19;;;;;;;16.77;10.95;;;;;;;;;;5070415;28;20493;-68
2023/08/02 10:03:51;;;;;;;21.75;11.32;;;16.50;99.90;;;;;;5070737;28;20194;-68
2023/08/02 10:06:19;;;;;;;20.95;10.93;;;16.10;99.90;;;;;;5070572;28;20036;-67
2023/08/02 10:08:45;;;;;;;21.13;10.88;;;;;;;;;;5070754;28;20071;-68
2023/08/02 10:11:11;;;;;;;18.90;10.25;;;17.10;99.90;;;;;;5071899;28;20095;-67
2023/08/02 10:13:39;;;;;;;17.63;10.82;;;16.60;99.90;;;;;;5070479;28;20430;-67
2023/08/02 10:16:06;;;;;;;19.27;10.07;;;16.50;99.90;;;;;;5070411;28;20045;-67
2023/08/02 10:18:34;;;;;;;17.83;10.45;;;16.50;99.90;;;;;;5070203;28;20172;-69
2023/08/02 10:21:00;;;;;;;17.65;9.75;;;;;;;;;;5070257;28;20095;-68
2023/08/02 10:23:27;;;;;;;18.88;10.23;;;;;;;;;;5070649;28;20102;-68
2023/08/02 10:25:54;;;;;;;15.93;9.80;;;16.50;99.90;;;;;;5069133;28;20072;-69
2023/08/02 10:28:20;;;;;;;16.27;9.57;;;;;;;;;;5068519;28;20486;-69
2023/08/02 10:30:47;;;;;;;17.50;9.00;;;;;;;;;;5070400;28;20049;-69
2023/08/02 10:33:17;;;;;;;13.60;8.48;;;16.50;99.90;;;;;;5069529;28;20055;-68
2023/08/02 10:36:03;;;;;;;14.55;8.98;;;16.90;99.90;;;;;;5068610;28;20385;-68
2023/08/02 10:38:38;;;;;;;17.25;8.10;;;17.30;99.90;;;;;;5070747;28;20540;-69
2023/08/02 10:41:12;;;;;;;12.57;7.60;;;17.00;99.90;;;;;;5074816;28;20135;-69
2023/08/02 10:44:00;;;;;;;14.27;7.63;;;17.00;99.90;;;;;;5055017;28;20037;-70
2023/08/02 10:46:28;;;;;;;10.40;7.25;;;16.50;99.90;;;;;;5074985;28;20127;-69
2023/08/02 10:48:55;;;;;;;12.73;7.18;;;16.60;99.90;;;;;;5075244;28;20123;-69
2023/08/02 10:51:27;;;;;;;8.68;6.97;;;16.70;99.90;;;;;;5075423;28;20048;-69
2023/08/02 10:54:14;;;;;;;12.27;6.80;;;16.60;99.90;;;;;;5074197;28;20509;-72
2023/08/02 10:56:56;;;;;;;9.15;6.25;;;15.60;99.90;;;;;;5073585;28;20048;-72
2023/08/02 10:59:24;;;;;;;9.23;6.03;;;16.30;99.90;;;;;;5063252;28;20047;-72
2023/08/02 11:02:01;;;;;;;9.90;6.15;;;;;;;;;;5065509;28;20047;-72
2023/08/02 11:04:28;;;;;;;9.13;5.30;;;;;;;;;;5104328;28;20086;-72
2023/08/02 11:06:55;;;;;;;12.65;6.13;;;;;;;;;;5073807;28;20478;-71
2023/08/02 11:09:31;;;;;;;10.90;5.72;;;;;;;;;;5058354;28;20105;-72
2023/08/02 11:11:57;;;;;;;9.63;4.90;;;;;;;;;;5060651;28;20041;-72
2023/08/02 11:14:27;;;;;;;7.45;5.00;;;;;;;;;;5038292;28;20048;-72
2023/08/02 11:16:53;;;;;;;8.35;4.72;;;;;;;;;;5068747;28;20044;-72
2023/08/02 11:19:24;;;;;;;6.35;4.30;;;16.90;99.90;;;;;;5056676;28;20162;-72
2023/08/02 11:21:54;;;;;;;7.63;4.45;;;16.80;99.90;;;;;;5056616;28;20044;-72
2023/08/02 11:24:20;;;;;;;8.82;4.93;;;;;;;;;;5057193;28;20045;-72
2023/08/02 11:26:56;;;;;;;5.93;4.60;;;16.80;99.90;;;;;;5073279;28;20033;-72
2023/08/02 11:29:23;;;;;;;5.80;4.70;;;16.00;99.90;;;;;;5073043;28;20574;-72
2023/08/02 11:31:53;;;;;;;8.65;5.07;;;17.10;99.90;;;;;;5056776;28;20040;-73
2023/08/02 11:34:20;;;;;;;9.82;5.30;;;17.30;99.90;;;;;;5073787;28;20036;-72
2023/08/02 11:36:47;;;;;;;6.63;4.93;;;17.60;99.90;;;;;;5070003;28;20470;-72
2023/08/02 11:39:20;;;;;;;7.97;5.53;;;17.60;99.90;;;;;;5071821;28;20410;-72
2023/08/02 11:41:59;;;;;;;8.40;4.32;;;17.70;99.90;;;;;;5072080;28;20041;-72
2023/08/02 11:44:25;;;;;;;9.80;5.20;;;;;;;;;;5073219;28;20174;-73
2023/08/02 11:46:55;;;;;;;9.15;5.45;;;18.50;99.90;;;;;;5071790;28;20450;-73
2023/08/02 11:49:21;;;;;;;8.93;5.43;;;;;;;;;;5071061;28;20124;-73
2023/08/02 11:51:47;;;;;;;8.93;5.90;;;;;;;;;;5072496;28;20142;-72
2023/08/02 11:54:14;;;;;;;7.30;5.70;;;;;;;;;;5073176;28;20036;-73
2023/08/02 11:56:40;;;;;;;14.60;5.97;;;18.30;99.90;;;;;;5040086;28;20068;-72
2023/08/02 11:59:09;;;;;;;8.77;5.88;;;17.60;99.90;;;;;;5073022;28;20489;-72
2023/08/02 12:01:35;;;;;;;10.63;6.05;;;;;;;;;;5073158;28;20041;-72
2023/08/02 12:04:05;;;;;;;10.10;5.47;;;18.70;99.90;;;;;;5073225;28;20029;-72
2023/08/02 12:07:04;;;;;;;8.88;5.82;;;;;;;;;;5056570;28;20063;-73
2023/08/02 12:09:42;;;;;;;10.77;5.53;;;17.80;99.90;;;;;;5040865;28;20094;-73
2023/08/02 12:12:08;;;;;;;9.27;6.40;;;18.70;99.90;;;;;;5072825;28;20120;-73
2023/08/02 12:14:34;;;;;;;10.80;6.70;;;;;;;;;;5056099;28;20119;-73
2023/08/02 12:17:00;;;;;;;10.30;6.90;;;;;;;;;;5072909;28;20064;-72
2023/08/02 12:19:39;;;;;;;8.55;6.50;;;;;;;;;;5072697;28;20040;-72
2023/08/02 12:22:05;;;;;;;8.93;7.13;;;;;;;;;;5055938;28;20059;-72
2023/08/02 12:24:31;;;;;;;9.32;7.15;;;;;;;;;;5072559;28;20214;-72
2023/08/02 12:26:57;;;;;;;13.50;7.35;;;;;;;;;;5072671;28;20036;-78
2023/08/02 12:29:24;;;;;;;9.93;6.38;;;19.10;99.90;;;;;;5039027;28;20033;-73
2023/08/02 12:31:53;;;;;;;16.95;7.35;;;18.30;99.90;;;;;;5055895;28;20036;-73
2023/08/02 12:34:18;;;;;;;10.38;7.32;;;18.30;99.90;;;;;;5072861;28;20473;-73
2023/08/02 12:36:47;;;;;;;12.05;7.78;;;19.30;99.90;;;;;;5054850;28;20045;-73
2023/08/02 12:39:13;;;;;;;12.25;7.35;;;19.70;99.90;;;;;;5072250;28;20048;-73
2023/08/02 12:41:39;;;;;;;11.32;6.97;;;;;;;;;;5055758;28;20128;-73
2023/08/02 12:44:06;;;;;;;11.13;6.70;;;;;;;;;;5055412;28;20098;-73
2023/08/02 12:46:32;;;;;;;13.02;6.47;;;;;;;;;;5071861;28;20403;-73
2023/08/02 12:48:58;;;;;;;14.45;5.68;;;;;;;;;;5071952;28;20496;-73
2023/08/02 12:51:23;;;;;;;9.63;5.10;;;20.30;99.90;;;;;;5055425;28;20043;-74
2023/08/02 12:53:50;;;;;;;16.27;5.20;;;;;;;;;;5071779;28;20036;-73
2023/08/02 12:56:16;;;;;;;10.80;4.63;;;;;;;;;;5071963;28;20036;-73
2023/08/02 12:58:42;;;;;;;9.38;3.90;;;20.20;99.90;;;;;;5070905;28;20546;-73
2023/08/02 13:01:08;;;;;;;9.30;4.45;;;;;;;;;;5072106;28;20037;-74
2023/08/02 13:03:33;;;;;;;12.52;3.80;;;21.10;99.90;;;;;;5070695;28;20101;-74
2023/08/02 13:05:59;;;;;;;14.35;4.38;;;;;;;;;;5072121;28;20128;-74
2023/08/02 13:08:25;;;;;;;18.30;4.25;;;21.10;99.90;;;;;;5071465;28;20071;-74
2023/08/02 13:10:52;;;;;;;13.70;4.10;;;;;;;;;;5071874;28;20068;-73
2023/08/02 13:13:18;;;;;;;9.77;3.67;;;20.70;99.90;;;;;;5071406;28;20040;-74
2023/08/02 13:15:45;;;;;;;16.80;3.95;;;20.70;99.90;;;;;;5071763;28;20077;-74
2023/08/02 13:18:11;;;;;;;14.82;3.95;;;;;;;;;;5071235;28;20048;-74
2023/08/02 13:20:37;;;;;;;14.82;3.72;;;;;;;;;;5071793;28;20378;-74
2023/08/02 13:23:03;;;;;;;12.35;3.88;;;;;;;;;;5071679;28;20054;-74
2023/08/02 13:25:33;;;;;;;10.43;3.28;;;19.50;99.90;;;;;;5071183;28;20036;-74
2023/08/02 13:28:00;;;;;;;15.38;4.50;;;20.50;99.90;;;;;;5068586;28;20501;-73
2023/08/02 13:30:26;;;;;;;19.20;4.20;;;;;;;;;;5071328;28;20387;-74
2023/08/02 13:32:52;;;;;;;14.38;2.70;;;;;;;;;;5054875;28;20143;-74
2023/08/02 13:35:20;;;;;;;15.70;2.78;;;21.10;99.90;;;;;;5071019;28;20082;-74
2023/08/02 13:37:46;;;;;;;15.32;2.58;;;20.40;99.90;;;;;;5071826;28;20032;-74
2023/08/02 13:40:12;;;;;;;19.98;3.05;;;21.50;99.90;;;;;;5070872;28;20485;-74
2023/08/02 13:42:38;;;;;;;19.77;2.97;;;;;;;;;;5071094;28;20064;-74
2023/08/02 13:45:04;;;;;;;16.42;2.78;;;;;;;;;;5070919;28;20127;-74
2023/08/02 13:47:30;;;;;;;16.88;3.00;;;;;;;;;;5037539;28;20473;-74
2023/08/02 13:49:56;;;;;;;23.55;3.13;;;21.60;99.90;;;;;;5071123;28;20045;-74
2023/08/02 13:52:22;;;;;;;20.17;2.90;;;20.40;99.90;;;;;;5071178;28;20462;-74
2023/08/02 13:54:48;;;;;;;15.27;3.08;;;;;;;;;;5053959;28;20072;-74